Time;durP1;ratioP1;P1;durP2;ratioP2;P2;SDS_P1;SDS_P2;PMS_P1;PMS_P2;Temp;Humidity;BMP_temperature;BMP_pressure;BME280_temperature;BME280_humidity;BME280_pressure;Samples;Min_cycle;Max_cycle;Signal;HPM_P1;HPM_P2
2023/12/14 00:00:43;;;;;;;4.83;1.80;;;;;;;19.30;59.24;99298.22;4917400;28;20191;-73
2023/12/14 00:03:09;;;;;;;5.37;1.83;;;;;;;19.26;59.36;99291.69;4970711;28;20189;-72
2023/12/14 00:05:35;;;;;;;5.90;2.43;;;;;;;19.27;59.43;99310.50;4953173;28;20662;-73
2023/12/14 00:08:00;;;;;;;4.47;1.70;;;;;;;19.25;59.51;99305.19;4918497;28;20921;-74
2023/12/14 00:10:26;;;;;;;4.17;1.77;;;;;;;19.28;58.89;99310.09;4935906;28;20444;-75
2023/12/14 00:12:53;;;;;;;5.50;1.80;;;;;;;19.27;58.97;99311.31;4918592;28;20197;-75
2023/12/14 00:15:18;;;;;;;5.20;1.73;;;;;;;19.24;59.11;99317.84;4918273;29;20190;-75
2023/12/14 00:17:43;;;;;;;7.90;2.00;;;;;;;19.23;59.74;99329.72;4918279;29;20410;-75
2023/12/14 00:20:09;;;;;;;5.93;2.30;;;;;;;19.27;58.97;99325.59;4933790;28;20191;-75
2023/12/14 00:22:35;;;;;;;5.23;2.00;;;;;;;19.27;59.50;99324.81;4921287;28;20193;-75
2023/12/14 00:25:01;;;;;;;3.90;1.40;;;;;;;19.23;59.22;99324.00;4937480;28;20197;-75
2023/12/14 00:27:26;;;;;;;5.80;1.87;;;;;;;19.23;59.24;99335.44;4936673;28;20270;-74
2023/12/14 00:29:52;;;;;;;4.70;1.47;;;;;;;19.24;59.30;99335.03;4949841;28;20203;-75
2023/12/14 00:32:17;;;;;;;3.80;1.73;;;;;;;19.24;60.01;99339.91;4964672;28;20668;-75
2023/12/14 00:34:43;;;;;;;5.87;1.60;;;;;;;19.24;59.03;99339.91;4933216;29;20203;-75
2023/12/14 00:37:08;;;;;;;3.27;1.53;;;;;;;19.24;59.38;99339.91;4931549;28;20244;-74
2023/12/14 00:39:34;;;;;;;5.23;1.80;;;;;;;19.23;59.66;99341.97;4956298;28;20193;-75
2023/12/14 00:41:59;;;;;;;4.93;1.50;;;;;;;19.23;59.09;99344.00;4956230;28;20194;-75
2023/12/14 00:44:24;;;;;;;4.67;1.60;;;;;;;19.21;59.42;99349.31;4938375;28;20996;-75
2023/12/14 00:46:50;;;;;;;5.80;1.80;;;;;;;19.22;58.81;99354.63;4955417;28;20268;-75
2023/12/14 00:49:18;;;;;;;5.37;1.67;;;;;;;19.25;58.86;99359.56;4943744;28;20177;-75
2023/12/14 00:51:43;;;;;;;4.00;1.80;;;;;;;19.21;59.49;99352.97;4972452;28;20181;-75
2023/12/14 00:54:08;;;;;;;5.83;1.80;;;;;;;19.23;58.93;99364.88;4939722;28;20948;-75
2023/12/14 00:56:34;;;;;;;4.77;2.00;;;;;;;19.23;59.19;99370.59;4939420;28;20762;-74
2023/12/14 00:58:59;;;;;;;5.37;1.60;;;;;;;19.19;59.65;99361.16;4922439;28;20221;-75
2023/12/14 01:01:25;;;;;;;5.07;1.60;;;;;;;19.21;59.55;99370.13;4944656;28;20186;-75
2023/12/14 01:03:50;;;;;;;4.33;1.43;;;;;;;19.19;59.28;99378.31;4974026;28;20256;-75
2023/12/14 01:06:16;;;;;;;6.17;1.47;;;;;;;19.20;59.36;99382.00;4930600;28;20186;-74
2023/12/14 01:08:41;;;;;;;5.00;1.47;;;;;;;19.19;59.16;99392.63;4934340;29;20187;-75
2023/12/14 01:11:07;;;;;;;5.10;1.90;;;;;;;19.20;59.39;99388.53;4920848;29;20179;-75
2023/12/14 01:13:32;;;;;;;3.53;1.50;;;;;;;19.17;59.49;99395.06;4921179;28;20190;-75
2023/12/14 01:15:58;;;;;;;4.20;1.60;;;;;;;19.18;59.26;99393.88;4923749;28;20410;-75
2023/12/14 01:18:24;;;;;;;6.23;1.87;;;;;;;19.19;59.46;99401.22;4940296;28;20186;-74
2023/12/14 01:20:50;;;;;;;3.93;1.40;;;;;;;19.20;59.43;99405.72;4936005;29;20290;-74
2023/12/14 01:23:15;;;;;;;8.30;1.80;;;;;;;19.18;59.24;99411.03;4937019;29;20477;-74
2023/12/14 01:25:41;;;;;;;4.20;1.40;;;;;;;19.17;59.52;99417.16;4932832;28;20225;-74
2023/12/14 01:28:06;;;;;;;4.27;1.40;;;;;;;19.17;59.67;99425.75;4940144;28;20646;-74
2023/12/14 01:30:32;;;;;;;5.87;1.80;;;;;;;19.16;59.00;99424.09;4937314;28;20183;-73
2023/12/14 01:32:57;;;;;;;4.13;1.67;;;;;;;19.18;59.32;99431.06;4938889;28;20185;-74
2023/12/14 01:35:23;;;;;;;4.10;1.17;;;;;;;19.17;59.31;99422.88;4945752;28;20191;-74
2023/12/14 01:37:48;;;;;;;6.90;2.43;;;;;;;19.18;59.25;99433.09;4923719;28;20241;-74
2023/12/14 01:40:14;;;;;;;5.07;2.00;;;;;;;19.17;59.38;99440.03;4944447;28;20270;-74
2023/12/14 01:42:39;;;;;;;3.43;1.50;;;;;;;19.17;58.90;99440.03;4920943;29;20222;-74
2023/12/14 01:45:05;;;;;;;6.60;1.93;;;;;;;19.14;59.39;99447.41;4920178;29;20199;-74
2023/12/14 01:47:31;;;;;;;3.23;1.50;;;;;;;19.17;58.41;99451.50;4914001;28;20586;-74
2023/12/14 01:49:56;;;;;;;4.60;1.60;;;;;;;19.15;59.06;99454.75;4941251;28;20445;-74
2023/12/14 01:52:22;;;;;;;5.67;1.70;;;;;;;19.14;59.69;99455.97;4955034;28;20261;-74
2023/12/14 01:54:47;;;;;;;4.57;1.67;;;;;;;19.13;59.39;99459.25;4954544;28;20178;-73
2023/12/14 01:57:12;;;;;;;5.43;1.83;;;;;;;19.13;59.35;99465.78;4938051;28;20269;-73
2023/12/14 01:59:38;;;;;;;6.10;1.83;;;;;;;19.13;59.48;99465.78;4952287;28;20465;-74
2023/12/14 02:02:05;;;;;;;5.77;1.60;;;;;;;19.14;58.99;99470.28;4955441;28;20606;-74
2023/12/14 02:04:31;;;;;;;5.43;1.67;;;;;;;19.11;59.55;99471.09;4955523;28;20666;-74
2023/12/14 02:06:56;;;;;;;4.53;1.63;;;;;;;19.12;59.47;99474.78;4937522;28;20435;-74
2023/12/14 02:09:22;;;;;;;3.40;1.50;;;;;;;19.13;59.48;99479.28;4938467;28;20186;-74
2023/12/14 02:11:47;;;;;;;1.80;1.03;;;;;;;19.10;59.42;99483.75;4934643;29;20647;-74
2023/12/14 02:14:12;;;;;;;4.73;1.23;;;;;;;19.10;59.71;99486.63;4920335;29;20171;-74
2023/12/14 02:16:38;;;;;;;5.20;1.70;;;;;;;19.13;59.36;99488.69;4925789;29;20246;-74
2023/12/14 02:19:04;;;;;;;3.10;1.40;;;;;;;19.11;59.39;99496.03;4952401;29;20179;-74
2023/12/14 02:21:30;;;;;;;3.13;1.53;;;;;;;19.13;59.21;99499.31;4955244;28;20194;-74
2023/12/14 02:23:55;;;;;;;5.53;1.63;;;;;;;19.09;59.66;99487.84;4920476;29;20442;-74
2023/12/14 02:26:21;;;;;;;4.77;1.70;;;;;;;19.11;59.69;99498.91;4904514;29;20182;-74
2023/12/14 02:28:46;;;;;;;4.70;1.80;;;;;;;19.10;59.41;99500.94;4903956;29;20187;-72
2023/12/14 02:31:12;;;;;;;2.80;1.30;;;;;;;19.10;59.18;99500.09;4937751;28;20189;-71
2023/12/14 02:33:37;;;;;;;3.50;1.70;;;;;;;19.10;59.35;99500.94;4957890;28;20684;-72
2023/12/14 02:36:03;;;;;;;4.27;1.87;;;;;;;19.08;59.67;99503.38;4948109;28;20201;-72
2023/12/14 02:38:29;;;;;;;4.03;1.50;;;;;;;19.06;59.74;99511.53;4922513;28;20294;-71
2023/12/14 02:40:55;;;;;;;3.90;1.50;;;;;;;19.08;59.08;99506.25;4971761;28;20932;-72
2023/12/14 02:43:20;;;;;;;3.50;1.77;;;;;;;19.07;59.14;99504.59;4938790;28;20197;-71
2023/12/14 02:45:46;;;;;;;3.70;1.63;;;;;;;19.09;59.19;99519.31;4922701;28;20202;-71
2023/12/14 02:48:11;;;;;;;3.00;1.40;;;;;;;19.06;59.21;99517.25;4953612;28;20182;-72
2023/12/14 02:50:37;;;;;;;3.77;1.37;;;;;;;19.07;59.06;99518.88;4933856;28;20602;-71
2023/12/14 02:53:02;;;;;;;3.03;1.30;;;;;;;19.07;59.00;99532.38;4919863;28;20276;-71
2023/12/14 02:55:28;;;;;;;5.10;1.60;;;;;;;19.04;59.61;99528.28;4936363;28;20175;-71
2023/12/14 02:57:53;;;;;;;3.20;1.63;;;;;;;19.07;58.95;99527.47;4951921;28;20186;-71
2023/12/14 03:00:19;;;;;;;4.03;1.40;;;;;;;19.07;59.31;99530.34;4936721;28;20549;-71
2023/12/14 03:02:45;;;;;;;6.63;1.50;;;;;;;19.05;59.35;99529.09;4956379;28;20308;-72
2023/12/14 03:05:10;;;;;;;3.30;1.50;;;;;;;19.05;59.38;99535.66;4954358;28;20468;-72
2023/12/14 03:07:36;;;;;;;3.10;1.40;;;;;;;19.05;59.32;99538.50;4937963;28;20194;-71
2023/12/14 03:10:02;;;;;;;2.73;1.37;;;;;;;19.04;59.64;99534.00;4937408;28;20642;-71
2023/12/14 03:12:28;;;;;;;7.17;1.20;;;;;;;19.06;59.73;99540.16;4934245;29;20198;-71
2023/12/14 03:14:53;;;;;;;5.77;1.40;;;;;;;19.05;59.18;99544.22;4934526;29;20427;-71
2023/12/14 03:17:19;;;;;;;2.60;1.27;;;;;;;19.04;59.75;99550.34;4950059;28;20178;-71
2023/12/14 03:19:44;;;;;;;3.93;1.37;;;;;;;19.04;59.38;99556.06;4938081;28;20195;-71
2023/12/14 03:22:09;;;;;;;3.00;1.30;;;;;;;19.03;59.37;99548.72;4934441;29;20195;-71
2023/12/14 03:24:35;;;;;;;2.20;1.20;;;;;;;19.02;59.42;99553.59;4934257;29;20198;-71
2023/12/14 03:27:02;;;;;;;3.40;1.60;;;;;;;19.03;59.42;99563.03;4934727;29;20187;-71
2023/12/14 03:29:28;;;;;;;6.00;1.57;;;;;;;19.01;59.45;99566.28;4934998;29;20481;-71
2023/12/14 03:31:54;;;;;;;5.43;1.50;;;;;;;19.02;59.29;99572.84;4948554;28;20481;-71
2023/12/14 03:34:19;;;;;;;3.13;1.10;;;;;;;19.02;59.24;99569.97;4953953;28;20210;-72
2023/12/14 03:36:45;;;;;;;3.40;1.30;;;;;;;19.00;59.33;99570.38;4921635;28;20456;-71
2023/12/14 03:39:10;;;;;;;3.13;1.53;;;;;;;18.99;59.58;99573.63;4933252;28;20591;-75
2023/12/14 03:41:35;;;;;;;3.10;1.67;;;;;;;19.02;59.07;99582.22;4936595;28;20614;-75
2023/12/14 03:44:01;;;;;;;3.20;1.60;;;;;;;19.01;59.27;99588.34;4950331;28;20632;-75
2023/12/14 03:46:26;;;;;;;3.57;1.10;;;;;;;18.99;59.49;99585.91;4945152;28;20934;-75
2023/12/14 03:48:52;;;;;;;4.10;1.63;;;;;;;19.01;58.98;99594.88;4933126;29;20175;-74
2023/12/14 03:51:18;;;;;;;3.33;1.27;;;;;;;18.98;59.12;99601.44;4933331;29;20573;-74
2023/12/14 03:53:44;;;;;;;4.97;1.40;;;;;;;19.00;59.40;99603.88;4939895;28;20245;-75
2023/12/14 03:56:09;;;;;;;4.70;1.37;;;;;;;19.00;59.65;99609.59;4920325;28;20450;-75
2023/12/14 03:58:34;;;;;;;4.67;1.83;;;;;;;19.00;59.31;99610.41;4918246;29;20194;-75
2023/12/14 04:01:00;;;;;;;4.03;1.47;;;;;;;18.98;59.68;99615.72;4930365;28;20175;-74
2023/12/14 04:03:26;;;;;;;3.47;1.10;;;;;;;18.97;59.36;99621.84;4952751;28;20265;-75
2023/12/14 04:05:51;;;;;;;5.50;1.07;;;;;;;18.97;59.35;99628.38;4922688;28;20206;-74
2023/12/14 04:08:17;;;;;;;3.83;1.60;;;;;;;19.00;59.10;99630.44;4920666;28;20697;-75
2023/12/14 04:10:42;;;;;;;2.77;1.30;;;;;;;19.00;59.42;99635.31;4935578;28;20267;-74
2023/12/14 04:13:08;;;;;;;3.97;1.50;;;;;;;18.97;59.58;99634.09;4939095;28;20223;-74
2023/12/14 04:15:33;;;;;;;2.53;1.20;;;;;;;18.97;59.35;99642.66;4936028;29;20179;-74
2023/12/14 04:17:58;;;;;;;3.17;1.20;;;;;;;18.97;59.71;99641.88;4951504;28;20186;-74
2023/12/14 04:20:24;;;;;;;3.13;1.40;;;;;;;18.98;59.61;99641.47;4939943;28;20187;-74
2023/12/14 04:22:49;;;;;;;3.87;1.40;;;;;;;18.96;59.76;99657.41;4924169;28;20248;-75
2023/12/14 04:25:15;;;;;;;4.43;1.60;;;;;;;18.99;59.55;99660.28;4956096;28;20206;-75
2023/12/14 04:27:40;;;;;;;3.30;1.50;;;;;;;18.96;59.28;99661.06;4940792;28;20186;-75
2023/12/14 04:30:10;;;;;;;3.80;1.83;;;;;;;18.97;59.34;99671.28;4925008;28;20181;-75
2023/12/14 04:32:36;;;;;;;2.70;1.30;;;;;;;18.95;59.19;99661.44;4941847;28;20637;-74
2023/12/14 04:35:01;;;;;;;3.57;1.20;;;;;;;18.98;59.47;99672.09;4939631;28;20445;-75
2023/12/14 04:37:27;;;;;;;2.87;1.20;;;;;;;18.96;59.92;99678.22;4923792;28;20527;-74
2023/12/14 04:39:52;;;;;;;3.00;1.07;;;;;;;18.97;59.12;99679.06;4953945;28;20183;-74
2023/12/14 04:42:17;;;;;;;3.73;1.33;;;;;;;18.94;59.68;99686.41;4938614;28;20178;-75
2023/12/14 04:44:43;;;;;;;3.63;1.23;;;;;;;18.97;59.00;99696.22;4922922;28;20211;-75
2023/12/14 04:47:08;;;;;;;2.57;1.10;;;;;;;18.94;59.62;99694.97;4940016;28;20189;-72
2023/12/14 04:49:34;;;;;;;3.20;1.20;;;;;;;18.97;59.57;99696.22;4936825;28;20187;-71
2023/12/14 04:51:59;;;;;;;2.50;1.00;;;;;;;18.95;59.54;99708.06;4973415;28;20181;-71
2023/12/14 04:54:25;;;;;;;4.10;1.47;;;;;;;18.97;59.22;99708.47;4939451;28;20261;-71
2023/12/14 04:56:50;;;;;;;3.13;1.30;;;;;;;18.96;59.61;99703.16;4923666;29;20199;-71
2023/12/14 04:59:16;;;;;;;3.83;1.77;;;;;;;18.95;59.28;99713.78;4935408;28;20186;-70
2023/12/14 05:01:41;;;;;;;2.93;1.37;;;;;;;18.94;59.60;99715.00;4963694;28;20683;-71
2023/12/14 05:04:06;;;;;;;3.27;1.27;;;;;;;18.97;59.24;99725.63;4944928;28;20206;-71
2023/12/14 05:06:33;;;;;;;2.87;1.23;;;;;;;18.94;59.10;99726.44;4940918;28;20181;-71
2023/12/14 05:09:01;;;;;;;2.73;1.37;;;;;;;18.93;59.60;99736.25;4940954;28;20269;-71
2023/12/14 05:11:26;;;;;;;4.20;1.73;;;;;;;18.95;59.25;99730.94;4956536;28;20430;-71
2023/12/14 05:13:51;;;;;;;3.50;1.33;;;;;;;18.98;59.26;99740.75;4952922;28;20464;-71
2023/12/14 05:16:17;;;;;;;2.20;1.20;;;;;;;18.95;59.39;99745.25;4956264;28;20162;-71
2023/12/14 05:18:42;;;;;;;2.70;1.47;;;;;;;18.97;59.31;99742.78;4940394;28;20190;-71
2023/12/14 05:21:08;;;;;;;4.30;1.20;;;;;;;18.95;59.73;99747.25;4956460;28;20541;-71
2023/12/14 05:23:33;;;;;;;3.47;1.13;;;;;;;18.95;59.42;99758.72;4939594;28;20169;-71
2023/12/14 05:25:59;;;;;;;3.10;1.50;;;;;;;18.94;59.33;99757.91;4939631;28;20209;-72
2023/12/14 05:28:25;;;;;;;3.47;1.53;;;;;;;18.94;59.11;99765.66;4924368;28;20186;-72
2023/12/14 05:30:50;;;;;;;3.30;1.10;;;;;;;18.98;59.22;99761.63;4973071;28;20181;-72
2023/12/14 05:33:16;;;;;;;2.20;1.10;;;;;;;18.96;59.53;99781.19;4924157;28;20182;-71
2023/12/14 05:35:41;;;;;;;2.37;1.10;;;;;;;18.97;58.90;99774.25;4954609;28;20190;-71
2023/12/14 05:38:06;;;;;;;4.70;1.60;;;;;;;18.96;59.55;99780.41;4933758;28;20977;-72
2023/12/14 05:40:32;;;;;;;2.53;1.30;;;;;;;18.96;59.31;99786.91;4954614;28;20201;-72
2023/12/14 05:42:57;;;;;;;4.10;1.37;;;;;;;18.93;59.43;99787.72;4952095;28;20618;-72
2023/12/14 05:45:23;;;;;;;2.90;1.40;;;;;;;18.94;59.47;99797.13;4940438;28;20212;-71
2023/12/14 05:47:48;;;;;;;2.03;1.10;;;;;;;18.97;59.25;99799.19;4991855;28;20523;-72
2023/12/14 05:50:14;;;;;;;2.60;1.03;;;;;;;18.95;59.65;99804.47;4992466;28;20184;-72
2023/12/14 05:52:40;;;;;;;2.13;1.23;;;;;;;18.95;59.74;99813.06;4949924;28;20175;-72
2023/12/14 05:55:09;;;;;;;2.40;1.07;;;;;;;18.93;59.49;99810.63;4954705;28;20171;-71
2023/12/14 05:57:34;;;;;;;2.50;1.20;;;;;;;18.94;59.46;99817.97;4955963;28;20418;-75
2023/12/14 06:00:00;;;;;;;2.60;1.37;;;;;;;18.95;59.12;99819.63;4938551;28;20808;-75
2023/12/14 06:02:25;;;;;;;2.13;1.00;;;;;;;18.94;59.17;99826.56;4952038;28;20613;-75
2023/12/14 06:04:51;;;;;;;3.30;1.43;;;;;;;18.93;58.97;99829.81;4973823;28;20570;-75
2023/12/14 06:07:17;;;;;;;3.07;1.30;;;;;;;18.94;59.02;99835.13;4956378;28;20693;-75
2023/12/14 06:09:42;;;;;;;5.40;1.50;;;;;;;18.94;59.33;99831.44;4953837;28;20178;-75
2023/12/14 06:12:08;;;;;;;3.40;1.40;;;;;;;18.97;59.26;99836.38;4931847;29;20684;-75
2023/12/14 06:14:33;;;;;;;2.50;1.10;;;;;;;18.94;59.38;99846.59;4937150;28;20181;-75
2023/12/14 06:16:58;;;;;;;2.40;0.90;;;;;;;18.94;59.32;99843.72;4923526;29;20187;-75
2023/12/14 06:19:24;;;;;;;3.27;1.40;;;;;;;18.94;59.28;99852.31;4938297;28;20230;-75
2023/12/14 06:21:49;;;;;;;4.30;1.10;;;;;;;18.97;58.52;99853.56;4932822;29;20553;-75
2023/12/14 06:24:15;;;;;;;2.63;1.10;;;;;;;18.97;59.14;99862.13;4927562;28;20198;-75
2023/12/14 06:26:44;;;;;;;3.13;1.23;;;;;;;18.94;59.50;99866.59;4921427;28;20611;-76
2023/12/14 06:29:10;;;;;;;4.93;1.70;;;;;;;18.97;58.78;99871.53;4937667;28;20190;-75
2023/12/14 06:31:36;;;;;;;3.10;1.40;;;;;;;18.97;59.50;99873.56;4929444;28;20460;-75
2023/12/14 06:34:04;;;;;;;3.50;1.50;;;;;;;18.95;59.34;99879.69;4933451;28;20293;-75
2023/12/14 06:36:35;;;;;;;1.90;1.10;;;;;;;18.96;59.56;99883.38;4953437;28;20631;-75
2023/12/14 06:39:01;;;;;;;2.47;1.20;;;;;;;18.97;59.38;99897.25;4922198;28;20465;-74
2023/12/14 06:41:27;;;;;;;2.30;1.20;;;;;;;18.95;59.16;99894.00;4937376;28;20421;-74
2023/12/14 06:43:53;;;;;;;2.80;1.40;;;;;;;18.99;59.06;99905.47;4937721;28;20166;-75
2023/12/14 06:46:20;;;;;;;3.93;1.30;;;;;;;18.95;59.02;99911.16;4931210;29;20467;-75
2023/12/14 06:48:45;;;;;;;2.27;1.20;;;;;;;18.96;58.84;99917.72;4903953;29;20945;-75
2023/12/14 06:51:10;;;;;;;3.23;1.40;;;;;;;18.94;59.43;99918.09;4919596;29;20194;-75
2023/12/14 06:53:37;;;;;;;3.07;1.13;;;;;;;18.94;59.30;99935.25;4913285;28;20665;-75
2023/12/14 06:56:03;;;;;;;2.47;1.07;;;;;;;18.95;59.24;99938.91;4918271;28;20188;-75
2023/12/14 06:58:29;;;;;;;2.30;1.03;;;;;;;18.95;59.33;99934.03;4953854;28;20414;-75
2023/12/14 07:00:54;;;;;;;2.93;1.10;;;;;;;18.96;59.38;99938.53;4921188;28;20439;-75
2023/12/14 07:03:20;;;;;;;2.90;1.30;;;;;;;18.96;59.07;99947.13;4937651;28;20222;-75
2023/12/14 07:05:45;;;;;;;2.27;1.20;;;;;;;18.93;58.99;99953.66;4938020;28;20798;-75
2023/12/14 07:08:10;;;;;;;3.40;1.43;;;;;;;18.98;59.07;99955.31;4919953;29;20194;-71
2023/12/14 07:10:36;;;;;;;3.17;1.10;;;;;;;18.95;59.33;99959.78;4931206;28;20174;-70
2023/12/14 07:13:01;;;;;;;2.10;1.00;;;;;;;18.98;59.18;99961.88;4947158;28;20166;-71
2023/12/14 07:15:27;;;;;;;2.23;1.10;;;;;;;18.96;58.63;99966.34;4949748;28;20669;-72
2023/12/14 07:17:52;;;;;;;2.67;1.27;;;;;;;18.98;58.50;99975.34;4962591;28;20182;-71
2023/12/14 07:20:18;;;;;;;4.03;1.47;;;;;;;18.94;59.24;99978.16;4960963;28;20181;-70
2023/12/14 07:22:43;;;;;;;1.90;1.03;;;;;;;18.97;58.91;99976.56;4943532;28;20190;-71
2023/12/14 07:25:08;;;;;;;2.87;1.20;;;;;;;18.97;59.46;99993.72;4925429;29;20186;-70
2023/12/14 07:27:34;;;;;;;2.70;1.60;;;;;;;18.96;58.69;99989.22;4925208;29;20183;-70
2023/12/14 07:29:59;;;;;;;2.40;1.20;;;;;;;18.94;59.29;99995.34;4920733;29;20764;-71
2023/12/14 07:32:25;;;;;;;3.57;1.30;;;;;;;18.97;59.36;99997.38;4966899;28;20177;-72
2023/12/14 07:34:50;;;;;;;3.83;1.10;;;;;;;18.94;59.52;99995.34;4979047;28;20213;-71
2023/12/14 07:37:16;;;;;;;2.10;1.20;;;;;;;18.94;59.24;100001.06;4961102;28;20232;-71
2023/12/14 07:39:41;;;;;;;2.30;1.30;;;;;;;19.01;58.90;100003.19;4926828;28;20225;-71
2023/12/14 07:42:07;;;;;;;1.90;0.90;;;;;;;18.96;58.90;100021.50;4961116;28;20178;-72
2023/12/14 07:44:33;;;;;;;2.60;1.07;;;;;;;18.98;58.34;100019.09;4936876;29;20639;-71
2023/12/14 07:46:59;;;;;;;2.10;0.97;;;;;;;18.95;59.16;100019.84;4947032;28;20602;-71
2023/12/14 07:49:25;;;;;;;3.03;1.10;;;;;;;18.96;59.21;100014.97;4967583;28;20174;-71
2023/12/14 07:51:51;;;;;;;3.00;1.10;;;;;;;18.94;59.52;100026.81;4948191;29;20997;-71
2023/12/14 07:54:16;;;;;;;3.27;1.33;;;;;;;18.97;58.88;100026.00;4948914;29;20252;-71
2023/12/14 07:56:42;;;;;;;2.60;1.00;;;;;;;18.97;58.83;100040.31;4947351;28;20238;-72
2023/12/14 07:59:07;;;;;;;2.10;1.00;;;;;;;18.95;58.83;100036.19;4967676;28;20578;-70
2023/12/14 08:01:36;;;;;;;2.53;1.07;;;;;;;18.98;59.12;100047.69;4958501;28;20182;-71
2023/12/14 08:04:01;;;;;;;2.90;1.17;;;;;;;18.94;58.75;100052.53;4968699;28;20197;-71
2023/12/14 08:06:27;;;;;;;3.57;1.10;;;;;;;18.94;59.09;100049.69;4951724;28;20444;-71
2023/12/14 08:08:52;;;;;;;1.70;0.90;;;;;;;18.93;59.10;100061.50;4956596;28;20193;-72
2023/12/14 08:11:17;;;;;;;2.20;0.80;;;;;;;18.97;59.41;100065.25;4954200;28;20615;-71
2023/12/14 08:13:43;;;;;;;3.03;1.00;;;;;;;18.97;58.71;100073.81;4951629;28;20186;-70
2023/12/14 08:16:08;;;;;;;3.50;1.60;;;;;;;18.94;59.09;100081.16;4949124;28;20190;-71
2023/12/14 08:18:34;;;;;;;3.30;1.30;;;;;;;18.98;58.88;100092.63;4949528;28;20190;-70
2023/12/14 08:20:59;;;;;;;4.70;1.10;;;;;;;18.97;59.10;100091.78;4934510;28;20669;-71
2023/12/14 08:23:27;;;;;;;2.20;1.03;;;;;;;18.97;59.32;100103.25;4949916;28;20174;-72
2023/12/14 08:25:56;;;;;;;2.10;1.00;;;;;;;18.95;59.13;100117.13;4949969;28;21126;-70
2023/12/14 08:28:22;;;;;;;2.77;1.40;;;;;;;18.99;58.53;100103.69;4983012;28;20460;-70
2023/12/14 08:30:48;;;;;;;2.77;1.10;;;;;;;19.01;58.78;100112.69;4956110;28;20442;-70
2023/12/14 08:33:13;;;;;;;2.00;1.00;;;;;;;18.98;58.96;100122.09;4936010;28;20429;-70
2023/12/14 08:35:39;;;;;;;2.00;0.97;;;;;;;18.98;58.91;100136.38;4935601;28;20186;-71
2023/12/14 08:38:04;;;;;;;2.33;1.10;;;;;;;18.99;58.93;100135.16;4951062;28;20238;-70
2023/12/14 08:40:30;;;;;;;1.83;1.23;;;;;;;18.98;58.93;100138.41;4953798;28;20265;-71
2023/12/14 08:42:56;;;;;;;3.20;1.03;;;;;;;18.98;58.69;100149.84;4948084;29;20179;-70
2023/12/14 08:45:22;;;;;;;3.77;1.07;;;;;;;18.97;59.41;100153.94;4953925;28;20475;-70
2023/12/14 08:47:47;;;;;;;1.87;0.97;;;;;;;18.97;58.90;100157.59;4949741;28;20785;-71
2023/12/14 08:50:13;;;;;;;3.50;1.10;;;;;;;18.98;58.59;100167.84;4932713;28;20194;-70
2023/12/14 08:52:38;;;;;;;2.67;1.40;;;;;;;18.96;59.36;100175.19;4933702;29;20194;-70
2023/12/14 08:55:04;;;;;;;2.33;0.97;;;;;;;18.96;59.25;100178.84;4948033;28;20601;-71
2023/12/14 08:57:30;;;;;;;3.90;1.20;;;;;;;18.96;59.38;100181.72;4946622;28;20540;-71
2023/12/14 08:59:56;;;;;;;2.40;0.90;;;;;;;18.95;59.28;100177.19;4928645;29;20426;-72
2023/12/14 09:02:21;;;;;;;2.60;0.97;;;;;;;18.96;59.07;100178.84;4964700;28;20446;-71
2023/12/14 09:04:47;;;;;;;2.73;1.10;;;;;;;18.97;58.97;100185.41;4931465;28;20218;-70
2023/12/14 09:07:12;;;;;;;1.90;1.00;;;;;;;18.97;59.37;100189.06;4930899;28;20170;-71
2023/12/14 09:09:38;;;;;;;4.23;1.43;;;;;;;18.96;58.90;100196.00;4945926;28;20219;-70
2023/12/14 09:12:03;;;;;;;2.57;0.97;;;;;;;18.97;58.58;100205.44;4946343;28;20183;-70
2023/12/14 09:14:29;;;;;;;2.77;1.23;;;;;;;18.96;58.99;100200.94;4931336;28;20187;-71
2023/12/14 09:16:55;;;;;;;3.13;1.40;;;;;;;18.98;58.95;100202.19;4947388;28;20234;-72
2023/12/14 09:19:20;;;;;;;2.40;1.10;;;;;;;18.99;58.58;100209.56;4946504;28;20179;-71
2023/12/14 09:21:46;;;;;;;2.50;1.17;;;;;;;18.99;59.02;100212.41;4946432;28;20213;-72
2023/12/14 09:24:11;;;;;;;2.40;1.10;;;;;;;19.01;59.08;100221.44;4929312;28;20190;-72
2023/12/14 09:26:37;;;;;;;1.93;1.00;;;;;;;18.99;58.38;100221.00;4934058;28;20229;-71
2023/12/14 09:29:02;;;;;;;2.90;0.90;;;;;;;19.01;58.33;100221.44;4962579;28;20174;-71
2023/12/14 09:31:28;;;;;;;1.97;1.20;;;;;;;18.99;58.96;100234.47;4938635;28;20197;-70
2023/12/14 09:33:53;;;;;;;2.80;1.07;;;;;;;18.99;58.54;100238.16;4983212;28;20185;-70
2023/12/14 09:36:19;;;;;;;2.83;1.37;;;;;;;19.00;58.87;100245.53;4979517;28;20158;-71
2023/12/14 09:38:45;;;;;;;2.77;1.20;;;;;;;18.98;58.85;100253.69;4947481;28;20238;-71
2023/12/14 09:41:11;;;;;;;2.20;1.20;;;;;;;18.98;59.23;100264.28;4947671;28;20179;-71
2023/12/14 09:43:37;;;;;;;2.57;1.27;;;;;;;18.99;58.97;100266.78;4944785;28;20441;-70
2023/12/14 09:46:03;;;;;;;3.03;1.10;;;;;;;19.02;58.86;100265.97;4956076;28;20208;-72
2023/12/14 09:48:28;;;;;;;2.60;1.17;;;;;;;18.99;58.98;100272.50;4954570;28;20437;-71
2023/12/14 09:50:54;;;;;;;1.80;0.90;;;;;;;18.99;58.61;100277.38;4944053;29;20183;-71
2023/12/14 09:53:19;;;;;;;2.50;0.90;;;;;;;18.96;58.97;100281.84;4972619;28;20182;-71
2023/12/14 09:55:44;;;;;;;2.23;1.33;;;;;;;18.95;58.24;100277.31;4975802;28;20186;-71
2023/12/14 09:58:10;;;;;;;4.00;1.30;;;;;;;18.92;57.97;100271.56;4954545;29;20210;-71
2023/12/14 10:00:37;;;;;;;7.00;1.90;;;;;;;18.83;57.63;100280.41;4935280;28;20183;-71
2023/12/14 10:03:23;;;;;;;4.63;1.53;;;;;;;18.85;56.85;100294.31;4972708;28;20413;-71
2023/12/14 10:05:49;;;;;;;5.63;2.07;;;;;;;18.83;57.71;100300.44;4974558;28;20498;-71
2023/12/14 10:08:16;;;;;;;4.30;1.47;;;;;;;18.81;57.56;100299.97;4939796;28;20443;-72
2023/12/14 10:10:42;;;;;;;3.40;1.50;;;;;;;18.81;57.31;100302.84;4952980;28;20182;-72
2023/12/14 10:13:08;;;;;;;5.30;1.40;;;;;;;18.78;57.28;100309.34;4929817;29;20411;-71
2023/12/14 10:15:47;;;;;;;3.03;1.30;;;;;;;18.82;57.22;100312.25;4928028;29;20414;-68
2023/12/14 10:18:23;;;;;;;7.47;1.57;;;;;;;18.84;57.38;100310.66;4947450;28;20242;-70
2023/12/14 10:20:48;;;;;;;5.50;2.20;;;;;;;18.84;57.15;100310.66;4967708;28;20433;-70
2023/12/14 10:23:14;;;;;;;6.57;2.30;;;;;;;18.83;57.67;100309.03;4965464;28;20453;-70
2023/12/14 10:25:39;;;;;;;7.20;2.13;;;;;;;18.87;57.79;100314.78;4935348;28;20211;-71
2023/12/14 10:28:05;;;;;;;9.63;2.20;;;;;;;18.84;57.51;100309.81;4939021;28;20189;-69
2023/12/14 10:30:30;;;;;;;6.50;2.00;;;;;;;18.80;58.52;100318.34;4947412;28;20178;-70
2023/12/14 10:32:56;;;;;;;10.73;2.23;;;;;;;18.85;58.41;100323.75;4952796;28;20181;-70
2023/12/14 10:35:22;;;;;;;5.40;1.90;;;;;;;18.83;58.42;100334.75;4947377;28;20206;-72
2023/12/14 10:37:50;;;;;;;10.93;2.07;;;;;;;18.87;58.10;100331.97;4959381;29;20931;-75
2023/12/14 10:40:15;;;;;;;4.40;2.20;;;;;;;18.89;58.39;100321.78;4933500;28;20285;-74
2023/12/14 10:42:44;;;;;;;8.50;1.60;;;;;;;18.93;58.95;100342.69;4936090;29;20820;-75
2023/12/14 10:45:13;;;;;;;5.00;1.67;;;;;;;18.92;58.30;100346.75;4922014;29;20654;-75
2023/12/14 10:47:46;;;;;;;3.10;1.50;;;;;;;18.92;58.28;100345.94;4935959;29;20426;-75
2023/12/14 10:50:11;;;;;;;7.17;2.60;;;;;;;18.94;58.67;100338.63;4921324;29;20504;-75
2023/12/14 10:52:40;;;;;;;11.50;2.20;;;;;;;18.92;58.79;100343.88;4922405;29;20423;-72
2023/12/14 10:55:18;;;;;;;10.20;2.40;;;;;;;18.85;58.18;100340.91;4908424;29;20910;-75
2023/12/14 10:57:43;;;;;;;7.87;1.70;;;;;;;18.86;58.04;100344.63;4943418;29;20443;-74
2023/12/14 11:00:10;;;;;;;13.00;2.43;;;;;;;18.84;58.63;100347.84;4945496;29;20469;-74
2023/12/14 11:02:43;;;;;;;6.67;1.90;;;;;;;18.85;57.95;100358.06;4964027;28;20199;-74
2023/12/14 11:05:09;;;;;;;24.63;3.47;;;;;;;18.86;57.75;100358.91;4945725;29;20502;-73
2023/12/14 11:07:52;;;;;;;20.43;3.20;;;;;;;18.82;58.53;100358.81;4918389;29;20469;-73
2023/12/14 11:10:29;;;;;;;24.20;3.50;;;;;;;18.78;57.95;100362.84;4937311;29;20454;-72
2023/12/14 11:12:59;;;;;;;27.40;3.63;;;;;;;18.81;57.62;100374.34;4920046;29;20465;-74
2023/12/14 11:15:25;;;;;;;14.93;3.70;;;;;;;18.80;57.92;100366.97;4934776;29;20423;-75
2023/12/14 11:18:12;;;;;;;18.47;4.17;;;;;;;18.86;57.61;100376.06;4919883;29;20444;-74
2023/12/14 11:21:00;;;;;;;20.20;2.57;;;;;;;18.86;57.79;100374.03;4930232;29;20223;-75
2023/12/14 11:23:26;;;;;;;21.83;3.30;;;;;;;18.85;57.94;100380.97;4926148;29;20447;-75